Time;durP1;ratioP1;P1;durP2;ratioP2;P2;SDS_P1;SDS_P2;PMS_P1;PMS_P2;Temp;Humidity;BMP_temperature;BMP_pressure;BME280_temperature;BME280_humidity;BME280_pressure;Samples;Min_cycle;Max_cycle;Signal;HPM_P1;HPM_P2
2023/01/07 00:02:07;;;;;;;25.92;18.65;;;21.30;73.90;;;;;;1825749;77;21185;-82
2023/01/07 00:04:38;;;;;;;24.10;17.73;;;21.30;73.90;;;;;;1830878;77;21139;-84
2023/01/07 00:07:09;;;;;;;29.70;19.23;;;21.30;73.70;;;;;;1838031;76;21155;-82
2023/01/07 00:09:40;;;;;;;34.03;21.12;;;21.20;73.70;;;;;;1845387;77;21060;-83
2023/01/07 00:12:29;;;;;;;32.35;21.52;;;21.20;73.60;;;;;;1837481;76;21130;-82
2023/01/07 00:15:00;;;;;;;27.17;20.60;;;21.20;73.80;;;;;;1841721;77;21193;-81
2023/01/07 00:17:31;;;;;;;28.05;20.43;;;21.30;73.70;;;;;;1843500;76;21072;-82
2023/01/07 00:20:03;;;;;;;35.68;21.15;;;21.20;73.70;;;;;;1848245;76;21154;-82
2023/01/07 00:22:34;;;;;;;40.60;22.67;;;21.30;73.60;;;;;;1852474;77;21131;-82
2023/01/07 00:25:06;;;;;;;28.85;21.68;;;21.40;72.70;;;;;;1834440;76;21223;-81
2023/01/07 00:27:37;;;;;;;30.05;21.82;;;21.40;72.70;;;;;;1839673;76;21220;-82
2023/01/07 00:30:09;;;;;;;27.82;21.52;;;21.40;71.70;;;;;;1840866;76;21619;-82
2023/01/07 00:33:03;;;;;;;31.93;21.70;;;21.30;72.10;;;;;;1846823;76;21123;-82
2023/01/07 00:35:32;;;;;;;31.97;24.05;;;21.30;72.50;;;;;;1841490;76;21088;-82
2023/01/07 00:38:04;;;;;;;32.88;22.52;;;21.30;72.60;;;;;;1869012;75;21654;-82
2023/01/07 00:40:34;;;;;;;31.42;23.30;;;21.30;72.50;;;;;;1883564;75;21063;-82
2023/01/07 00:43:05;;;;;;;31.93;22.98;;;21.30;72.30;;;;;;1860141;77;21102;-83
2023/01/07 00:45:37;;;;;;;31.75;22.42;;;21.30;72.40;;;;;;1854798;77;21107;-81
2023/01/07 00:48:09;;;;;;;36.30;24.23;;;21.30;72.30;;;;;;1836445;77;21165;-82
2023/01/07 00:50:40;;;;;;;33.08;23.05;;;21.20;72.00;;;;;;1793890;78;21162;-82
2023/01/07 00:53:12;;;;;;;35.13;23.83;;;21.20;72.30;;;;;;1845526;76;21165;-81
2023/01/07 00:55:43;;;;;;;37.58;24.12;;;21.20;72.10;;;;;;1878612;75;21106;-83
2023/01/07 00:58:19;;;;;;;34.98;23.70;;;21.30;71.80;;;;;;1860877;76;21480;-82
2023/01/07 01:00:50;;;;;;;36.43;23.63;;;21.30;72.00;;;;;;1869985;75;21658;-82
2023/01/07 01:03:20;;;;;;;35.73;23.27;;;21.30;72.50;;;;;;1872106;75;21079;-83
2023/01/07 01:05:51;;;;;;;34.98;25.10;;;21.30;72.10;;;;;;1829435;76;21160;-82
2023/01/07 01:08:22;;;;;;;32.88;23.95;;;21.40;71.80;;;;;;1805026;78;21157;-83
2023/01/07 01:10:53;;;;;;;37.48;25.35;;;21.50;71.70;;;;;;1874953;76;21126;-82
2023/01/07 01:13:24;;;;;;;32.73;23.90;;;21.50;71.50;;;;;;1855046;75;21167;-83
2023/01/07 01:15:55;;;;;;;32.73;22.95;;;21.50;71.00;;;;;;1874097;75;21603;-82
2023/01/07 01:18:25;;;;;;;39.20;23.12;;;21.50;70.80;;;;;;1839323;76;21137;-83
2023/01/07 01:20:56;;;;;;;33.58;23.45;;;21.50;70.90;;;;;;1845071;76;21081;-83
2023/01/07 01:23:29;;;;;;;35.68;23.05;;;21.60;71.10;;;;;;1842180;76;21654;-69
2023/01/07 01:26:05;;;;;;;36.23;23.98;;;21.60;71.00;;;;;;1835506;77;21540;-70
2023/01/07 01:28:37;;;;;;;30.35;22.95;;;21.60;70.60;;;;;;1805614;78;21111;-70
2023/01/07 01:31:09;;;;;;;37.17;23.90;;;21.70;70.70;;;;;;1803336;78;21076;-70
2023/01/07 01:33:40;;;;;;;35.50;23.70;;;21.70;70.20;;;;;;1852255;77;21100;-70
2023/01/07 01:36:12;;;;;;;34.13;24.10;;;21.80;70.30;;;;;;1828103;76;21122;-70
2023/01/07 01:38:43;;;;;;;35.83;24.60;;;21.80;70.30;;;;;;1824302;78;21104;-71
2023/01/07 01:41:18;;;;;;;33.60;23.77;;;21.80;69.50;;;;;;1805335;78;21104;-69
2023/01/07 01:43:50;;;;;;;33.40;23.87;;;21.90;70.00;;;;;;1805613;78;21528;-70
2023/01/07 01:46:23;;;;;;;38.58;24.65;;;21.90;69.80;;;;;;1840380;76;21137;-68
2023/01/07 01:48:57;;;;;;;36.40;23.40;;;22.00;69.50;;;;;;1847930;76;21249;-70
2023/01/07 01:51:33;;;;;;;32.45;23.55;;;22.00;68.50;;;;;;1804913;78;21604;-70
2023/01/07 01:54:07;;;;;;;33.30;24.80;;;22.00;69.60;;;;;;1846554;76;21237;-69
2023/01/07 01:56:41;;;;;;;35.40;25.30;;;22.00;69.20;;;;;;1798909;78;21093;-68
2023/01/07 01:59:14;;;;;;;36.25;24.92;;;22.00;69.40;;;;;;1842752;76;21147;-70
2023/01/07 02:01:46;;;;;;;40.75;25.80;;;22.10;68.60;;;;;;1845672;76;21665;-69
2023/01/07 02:04:21;;;;;;;32.13;22.95;;;22.10;68.80;;;;;;1844621;76;21153;-70
2023/01/07 02:07:00;;;;;;;63.92;25.55;;;22.10;68.90;;;;;;1836147;76;21142;-70
2023/01/07 02:09:32;;;;;;;37.30;25.08;;;22.20;68.90;;;;;;1846022;76;21552;-70
2023/01/07 02:12:23;;;;;;;38.35;25.57;;;22.20;68.90;;;;;;1848185;76;21604;-68
2023/01/07 02:15:09;;;;;;;33.00;23.77;;;22.30;68.90;;;;;;1858063;75;21124;-69
2023/01/07 02:18:11;;;;;;;38.85;26.50;;;22.40;68.80;;;;;;1864477;75;21069;-68
2023/01/07 02:20:54;;;;;;;36.25;25.02;;;22.40;68.70;;;;;;1856877;75;21581;-70
2023/01/07 02:23:46;;;;;;;31.95;24.43;;;22.50;68.20;;;;;;1843224;76;21595;-70
2023/01/07 02:26:43;;;;;;;33.58;24.67;;;22.60;68.40;;;;;;1882091;75;21076;-71
2023/01/07 02:29:37;;;;;;;32.48;24.67;;;22.60;68.10;;;;;;1864698;75;21661;-71
2023/01/07 02:32:33;;;;;;;32.80;23.75;;;22.60;68.60;;;;;;1853878;75;21682;-71
2023/01/07 02:35:12;;;;;;;36.30;24.07;;;22.70;67.90;;;;;;1854237;75;21130;-70
2023/01/07 02:37:45;;;;;;;32.65;23.35;;;22.70;67.00;;;;;;1855840;75;21924;-71
2023/01/07 02:40:36;;;;;;;35.92;23.92;;;22.60;67.20;;;;;;1861213;76;21112;-71
2023/01/07 02:43:16;;;;;;;35.52;22.77;;;22.60;67.70;;;;;;1861895;75;21379;-72
2023/01/07 02:46:03;;;;;;;29.37;21.60;;;22.70;67.20;;;;;;1872352;75;21588;-70
2023/01/07 02:48:35;;;;;;;32.67;22.98;;;22.70;66.90;;;;;;1836830;76;21068;-70
2023/01/07 02:51:07;;;;;;;30.97;21.95;;;22.80;67.10;;;;;;1830409;76;21211;-69
2023/01/07 02:53:38;;;;;;;30.00;21.62;;;22.80;66.70;;;;;;1918586;73;21162;-71
2023/01/07 02:56:18;;;;;;;28.73;21.85;;;22.80;66.50;;;;;;1922021;73;21130;-68
2023/01/07 03:02:02;;;;;;;33.42;22.65;;;22.90;66.80;;;;;;1937849;72;21237;-70
2023/01/07 03:04:45;;;;;;;37.08;22.52;;;22.90;66.80;;;;;;1918705;73;21064;-71
2023/01/07 03:07:39;;;;;;;33.92;22.80;;;23.00;65.50;;;;;;1890616;74;21194;-70
2023/01/07 03:10:24;;;;;;;28.42;22.52;;;23.00;64.80;;;;;;1864327;75;21159;-71
2023/01/07 03:13:20;;;;;;;31.45;22.73;;;23.10;64.00;;;;;;1877507;73;21720;-67
2023/01/07 03:15:59;;;;;;;35.58;23.12;;;23.10;64.30;;;;;;1920775;73;21611;-70
2023/01/07 03:18:33;;;;;;;30.00;22.20;;;23.10;63.70;;;;;;1902179;74;21604;-70
2023/01/07 03:21:06;;;;;;;32.33;23.85;;;23.20;64.60;;;;;;1900814;74;21591;-71
2023/01/07 03:23:40;;;;;;;30.77;22.20;;;23.20;64.40;;;;;;1903721;74;21602;-71
2023/01/07 03:26:12;;;;;;;33.00;23.62;;;23.20;64.20;;;;;;1915365;73;22386;-71
2023/01/07 03:28:48;;;;;;;34.63;24.27;;;23.30;64.00;;;;;;1920038;73;21104;-71
2023/01/07 03:31:20;;;;;;;31.82;23.35;;;23.30;63.70;;;;;;1912180;73;21147;-71
2023/01/07 03:33:54;;;;;;;33.88;23.87;;;23.40;63.90;;;;;;1902031;74;21174;-70
2023/01/07 03:36:27;;;;;;;35.80;22.75;;;23.40;64.10;;;;;;1903318;74;21095;-72
2023/01/07 03:38:59;;;;;;;34.18;24.02;;;23.40;64.30;;;;;;1949142;72;21992;-71
2023/01/07 03:44:23;;;;;;;33.15;23.75;;;23.60;64.80;;;;;;1901557;74;21148;-71
2023/01/07 03:46:56;;;;;;;32.40;23.38;;;23.60;64.20;;;;;;1916096;73;21803;-71
2023/01/07 03:49:27;;;;;;;32.93;23.38;;;23.70;64.50;;;;;;1917665;73;21667;-70
2023/01/07 03:52:10;;;;;;;33.23;23.75;;;23.70;63.20;;;;;;1898981;74;21127;-72
2023/01/07 03:54:41;;;;;;;34.27;23.75;;;23.70;63.00;;;;;;1901465;74;21112;-72
2023/01/07 03:57:16;;;;;;;32.88;24.10;;;23.80;63.20;;;;;;1919768;73;21570;-72
2023/01/07 03:59:45;;;;;;;33.75;24.65;;;23.80;63.00;;;;;;1918858;73;21238;-72
2023/01/07 04:02:16;;;;;;;31.75;22.42;;;23.80;62.50;;;;;;1945996;72;21132;-71
2023/01/07 04:04:51;;;;;;;34.25;24.40;;;23.90;62.70;;;;;;1905375;74;21139;-70
2023/01/07 04:07:24;;;;;;;;;;;24.00;62.30;;;;;;1905800;74;21123;-70
2023/01/07 04:09:55;;;;;;;32.15;23.73;;;24.10;62.70;;;;;;1906369;74;20197;-71
2023/01/07 04:12:27;;;;;;;38.25;23.55;;;24.10;61.80;;;;;;1945302;72;21140;-70
2023/01/07 04:15:02;;;;;;;31.00;24.73;;;24.10;61.20;;;;;;1944671;72;21650;-70
2023/01/07 04:17:34;;;;;;;33.38;24.80;;;24.10;61.40;;;;;;1921976;73;21701;-70
2023/01/07 04:20:06;;;;;;;35.85;24.57;;;24.20;61.80;;;;;;1946320;72;21178;-70
2023/01/07 04:22:37;;;;;;;35.83;24.82;;;24.20;62.00;;;;;;1942916;72;21062;-71
2023/01/07 04:25:10;;;;;;;35.08;25.17;;;24.20;61.30;;;;;;1946145;72;21155;-70
2023/01/07 04:27:41;;;;;;;34.15;25.88;;;24.20;61.40;;;;;;1906390;74;21183;-70
2023/01/07 04:30:13;;;;;;;35.83;24.90;;;24.30;62.30;;;;;;1919905;73;21072;-70
2023/01/07 04:32:44;;;;;;;31.60;24.98;;;24.30;60.70;;;;;;1921261;73;21137;-69
2023/01/07 04:35:15;;;;;;;36.35;25.12;;;24.40;61.30;;;;;;1948078;72;21154;-71
2023/01/07 04:37:46;;;;;;;36.20;25.77;;;24.50;60.20;;;;;;1919006;73;21229;-71
2023/01/07 04:40:18;;;;;;;33.25;25.90;;;24.60;59.90;;;;;;1918587;73;21144;-70
2023/01/07 04:42:52;;;;;;;34.83;25.05;;;24.70;60.40;;;;;;1944032;72;21205;-71
2023/01/07 04:45:25;;;;;;;32.70;25.20;;;24.80;59.90;;;;;;1948166;72;21812;-71
2023/01/07 04:47:56;;;;;;;34.40;23.38;;;24.80;60.70;;;;;;1945398;72;21146;-71
2023/01/07 04:50:28;;;;;;;34.23;23.70;;;24.90;58.80;;;;;;1944173;72;21168;-70
2023/01/07 04:52:59;;;;;;;35.15;23.30;;;24.90;58.80;;;;;;1919865;73;21503;-71
2023/01/07 04:55:33;;;;;;;34.65;23.65;;;24.90;59.20;;;;;;1914682;73;21138;-69
2023/01/07 04:58:04;;;;;;;29.23;22.05;;;25.00;59.20;;;;;;1921521;73;21174;-70
2023/01/07 05:00:36;;;;;;;32.53;22.10;;;25.10;59.60;;;;;;1917021;73;21101;-71
2023/01/07 05:03:09;;;;;;;38.78;23.73;;;25.20;58.20;;;;;;1906836;73;21200;-69
2023/01/07 05:05:41;;;;;;;31.48;22.55;;;25.30;57.80;;;;;;1904440;74;21170;-70
2023/01/07 05:08:12;;;;;;;31.52;21.68;;;25.40;58.00;;;;;;1907056;74;21185;-70
2023/01/07 05:10:44;;;;;;;30.08;21.25;;;25.50;57.60;;;;;;1902334;74;21434;-71
2023/01/07 05:13:19;;;;;;;29.70;20.40;;;25.60;56.90;;;;;;1866792;75;21135;-71
2023/01/07 05:15:50;;;;;;;27.45;20.30;;;25.70;56.60;;;;;;1866957;75;21178;-70
2023/01/07 05:18:21;;;;;;;26.52;19.60;;;25.80;55.50;;;;;;1909532;74;21106;-69
2023/01/07 05:20:52;;;;;;;27.67;19.80;;;25.80;55.60;;;;;;1866433;75;21202;-70
2023/01/07 05:23:25;;;;;;;28.32;19.55;;;25.70;55.40;;;;;;1904340;73;21154;-71
2023/01/07 05:25:56;;;;;;;29.02;19.23;;;25.70;55.40;;;;;;1903871;74;21106;-85
2023/01/07 05:28:30;;;;;;;24.23;19.55;;;25.60;55.00;;;;;;1912469;73;21167;-83
2023/01/07 05:31:01;;;;;;;23.83;18.02;;;25.70;55.30;;;;;;1874981;75;21219;-84
2023/01/07 05:33:32;;;;;;;25.35;17.73;;;25.80;55.70;;;;;;1912080;73;21122;-83
2023/01/07 05:36:03;;;;;;;25.08;18.48;;;25.90;55.20;;;;;;1919200;73;21149;-83
2023/01/07 05:38:34;;;;;;;25.35;18.50;;;26.00;54.70;;;;;;1919311;73;21135;-83
2023/01/07 05:41:05;;;;;;;23.20;17.77;;;26.10;54.70;;;;;;1921190;73;21084;-83
2023/01/07 05:43:37;;;;;;;24.63;17.02;;;26.20;54.50;;;;;;1920860;73;21052;-84
2023/01/07 05:46:08;;;;;;;24.55;17.62;;;26.30;53.60;;;;;;1923981;73;21103;-82
2023/01/07 05:48:39;;;;;;;22.48;17.65;;;26.40;53.90;;;;;;1919817;73;21107;-84
2023/01/07 05:51:10;;;;;;;23.38;17.75;;;26.60;53.30;;;;;;1924089;73;21122;-83
2023/01/07 05:53:42;;;;;;;24.75;17.42;;;26.70;53.10;;;;;;1921051;73;21103;-85
2023/01/07 05:56:13;;;;;;;23.12;17.75;;;26.80;53.30;;;;;;1920897;73;21095;-83
2023/01/07 05:58:44;;;;;;;25.10;17.42;;;26.80;52.50;;;;;;1917866;73;21180;-83
2023/01/07 06:01:15;;;;;;;24.18;17.10;;;26.90;52.70;;;;;;1917444;73;21124;-82
2023/01/07 06:03:46;;;;;;;24.25;17.62;;;26.90;52.60;;;;;;1927488;73;21500;-82
2023/01/07 06:06:18;;;;;;;24.27;17.02;;;26.90;52.00;;;;;;1921976;73;21053;-69
2023/01/07 06:08:48;;;;;;;27.37;17.90;;;27.00;51.70;;;;;;1923584;73;21122;-68
2023/01/07 06:11:22;;;;;;;25.40;17.70;;;27.00;52.00;;;;;;1921507;73;21574;-68
2023/01/07 06:13:52;;;;;;;23.40;16.95;;;27.10;52.00;;;;;;1922035;73;21144;-70
2023/01/07 06:16:23;;;;;;;23.25;16.95;;;27.10;52.10;;;;;;1922258;73;21100;-69
2023/01/07 06:21:46;;;;;;;22.62;17.00;;;27.20;51.90;;;;;;1893394;75;21109;-69
2023/01/07 06:24:17;;;;;;;21.55;17.10;;;27.30;51.40;;;;;;1913300;75;22382;-68
2023/01/07 06:26:48;;;;;;;25.45;18.17;;;27.30;51.90;;;;;;1931886;73;21160;-69
2023/01/07 06:29:19;;;;;;;24.90;17.65;;;27.30;52.10;;;;;;1882133;75;21140;-69
2023/01/07 06:31:50;;;;;;;26.12;17.35;;;27.30;52.00;;;;;;1910774;75;21148;-70
2023/01/07 06:34:22;;;;;;;23.83;16.85;;;27.30;51.90;;;;;;1927184;74;21081;-69
2023/01/07 06:36:54;;;;;;;25.12;17.50;;;27.30;51.60;;;;;;1933090;73;21163;-70
2023/01/07 06:39:26;;;;;;;22.20;17.00;;;27.30;51.90;;;;;;1891872;75;21580;-70
2023/01/07 06:41:58;;;;;;;23.67;16.55;;;27.30;51.90;;;;;;1909738;75;21183;-70
2023/01/07 06:44:29;;;;;;;22.50;16.48;;;27.30;51.40;;;;;;1933088;74;21642;-68
2023/01/07 06:47:00;;;;;;;22.77;15.93;;;27.30;51.90;;;;;;1885037;75;21045;-69
2023/01/07 06:49:33;;;;;;;19.98;15.35;;;27.30;51.90;;;;;;1866189;75;21651;-70
2023/01/07 06:52:05;;;;;;;23.50;16.37;;;27.30;51.60;;;;;;1855914;76;21089;-68
2023/01/07 06:54:37;;;;;;;23.90;17.12;;;27.30;51.40;;;;;;1897810;73;21163;-70
2023/01/07 06:57:29;;;;;;;23.80;16.82;;;27.30;51.30;;;;;;1928853;72;21650;-70
2023/01/07 07:00:00;;;;;;;23.32;16.48;;;27.30;51.70;;;;;;1887968;74;21148;-71
2023/01/07 07:02:32;;;;;;;24.43;16.87;;;27.40;51.30;;;;;;1913013;74;21214;-68
2023/01/07 07:05:03;;;;;;;20.92;15.40;;;27.50;51.50;;;;;;1934849;72;21182;-69
2023/01/07 07:07:34;;;;;;;19.55;15.63;;;27.50;51.20;;;;;;1885279;75;21168;-71
2023/01/07 07:10:12;;;;;;;19.95;15.68;;;27.50;51.10;;;;;;1913104;75;21128;-70
2023/01/07 07:12:43;;;;;;;20.70;16.70;;;27.60;50.90;;;;;;1933207;72;21143;-69
2023/01/07 07:15:14;;;;;;;22.70;16.15;;;27.60;51.00;;;;;;1887264;74;21546;-69
2023/01/07 07:17:47;;;;;;;21.30;16.65;;;27.50;50.50;;;;;;1909533;73;21191;-68
2023/01/07 07:20:18;;;;;;;20.00;15.95;;;27.50;51.10;;;;;;1927727;72;21158;-68
2023/01/07 07:22:49;;;;;;;23.80;18.17;;;27.50;51.30;;;;;;1903494;75;21131;-68
2023/01/07 07:25:20;;;;;;;21.68;17.05;;;27.50;50.50;;;;;;1906089;73;21584;-69
2023/01/07 07:27:51;;;;;;;20.97;16.02;;;27.50;50.90;;;;;;1903947;74;21127;-69
2023/01/07 07:30:24;;;;;;;23.47;16.55;;;27.50;50.80;;;;;;1906340;73;21128;-70
2023/01/07 07:32:58;;;;;;;23.80;15.90;;;27.50;51.30;;;;;;1904383;73;21199;-69
2023/01/07 07:35:29;;;;;;;18.20;14.03;;;27.60;51.70;;;;;;1861398;75;21150;-70
2023/01/07 07:38:00;;;;;;;23.62;14.20;;;27.60;50.70;;;;;;1906596;74;21128;-69
2023/01/07 07:40:32;;;;;;;20.90;14.43;;;27.60;50.70;;;;;;1853413;75;21130;-69
2023/01/07 07:43:04;;;;;;;15.63;13.03;;;27.60;50.70;;;;;;1905394;74;21076;-68
2023/01/07 07:45:37;;;;;;;18.45;14.15;;;27.60;50.90;;;;;;1907320;75;21179;-69
2023/01/07 07:48:09;;;;;;;21.45;13.45;;;27.50;50.70;;;;;;1898683;75;21183;-68
2023/01/07 07:50:40;;;;;;;21.37;14.90;;;27.60;50.50;;;;;;1902676;73;21198;-68
2023/01/07 07:53:12;;;;;;;20.05;14.13;;;27.50;50.60;;;;;;1904828;75;21150;-69
2023/01/07 07:55:46;;;;;;;22.22;14.45;;;27.60;50.60;;;;;;1900531;75;21103;-69
2023/01/07 07:58:22;;;;;;;19.80;14.23;;;27.60;50.30;;;;;;1902615;75;21120;-69
2023/01/07 08:00:53;;;;;;;19.90;14.33;;;27.60;50.20;;;;;;1906981;74;21498;-70
2023/01/07 08:03:24;;;;;;;18.50;13.40;;;27.70;50.70;;;;;;1860940;76;21111;-70
2023/01/07 08:05:56;;;;;;;17.82;12.98;;;27.70;50.50;;;;;;1904656;74;21128;-70
2023/01/07 08:08:27;;;;;;;19.75;13.45;;;27.70;50.30;;;;;;1898761;75;21182;-69
2023/01/07 08:11:02;;;;;;;17.90;13.08;;;27.70;50.50;;;;;;1903438;74;21132;-69
2023/01/07 08:13:34;;;;;;;17.23;12.60;;;27.60;50.60;;;;;;1903228;75;21139;-66
2023/01/07 08:16:05;;;;;;;16.05;12.40;;;27.60;50.80;;;;;;1892144;75;21076;-69
2023/01/07 08:18:36;;;;;;;19.90;13.32;;;27.60;51.20;;;;;;1905915;73;21604;-69
2023/01/07 08:21:07;;;;;;;17.07;12.90;;;27.60;50.30;;;;;;1912507;73;21126;-69
2023/01/07 08:23:38;;;;;;;18.87;13.20;;;27.50;50.80;;;;;;1901719;75;21265;-70
2023/01/07 08:26:09;;;;;;;18.10;12.88;;;27.50;51.20;;;;;;1923101;72;21599;-69
2023/01/07 08:28:40;;;;;;;19.12;13.00;;;27.50;51.30;;;;;;1880901;74;21260;-70
2023/01/07 08:31:13;;;;;;;17.20;13.65;;;27.50;51.40;;;;;;1933163;73;21164;-68
2023/01/07 08:33:44;;;;;;;19.57;14.03;;;27.50;51.70;;;;;;1898016;73;21243;-70
2023/01/07 08:36:15;;;;;;;18.57;14.40;;;27.50;51.00;;;;;;1924150;72;21145;-69
2023/01/07 08:38:55;;;;;;;18.35;14.18;;;27.50;51.40;;;;;;1905371;73;21143;-69
2023/01/07 08:41:28;;;;;;;19.05;14.23;;;27.40;51.10;;;;;;1926571;73;21215;-69
2023/01/07 08:43:59;;;;;;;23.07;14.20;;;27.40;51.80;;;;;;1899827;75;21798;-70
2023/01/07 08:46:30;;;;;;;20.23;14.28;;;27.40;52.10;;;;;;1931318;73;21153;-69
2023/01/07 08:49:01;;;;;;;21.95;14.78;;;27.40;51.30;;;;;;1905677;75;21213;-69
2023/01/07 08:51:32;;;;;;;24.32;16.57;;;27.30;51.70;;;;;;1926396;72;21157;-70
2023/01/07 08:54:03;;;;;;;24.02;15.85;;;27.30;51.20;;;;;;1889049;75;21765;-70
2023/01/07 08:56:36;;;;;;;18.00;14.10;;;27.30;51.30;;;;;;1929038;73;21157;-70
2023/01/07 08:59:10;;;;;;;20.02;13.62;;;27.30;51.50;;;;;;1925583;74;21102;-70
2023/01/07 09:01:41;;;;;;;17.25;12.95;;;27.30;51.50;;;;;;1895834;75;21059;-70
2023/01/07 09:04:14;;;;;;;16.70;12.20;;;27.20;51.20;;;;;;1926208;73;21643;-69
2023/01/07 09:06:45;;;;;;;18.75;13.75;;;27.20;51.40;;;;;;1933809;72;21184;-69
2023/01/07 09:09:16;;;;;;;20.92;13.78;;;27.20;51.10;;;;;;1907019;75;21132;-69
2023/01/07 09:11:47;;;;;;;17.48;12.70;;;27.20;51.10;;;;;;1930767;74;21155;-70
2023/01/07 09:14:17;;;;;;;16.62;13.22;;;27.20;51.50;;;;;;1870841;75;21112;-70
2023/01/07 09:16:49;;;;;;;16.67;13.70;;;27.20;51.60;;;;;;1926512;73;21154;-70
2023/01/07 09:19:22;;;;;;;23.07;14.20;;;27.20;51.10;;;;;;1896565;74;21207;-69
2023/01/07 09:21:56;;;;;;;18.50;14.13;;;27.20;51.20;;;;;;1916055;74;21196;-71
2023/01/07 09:24:28;;;;;;;16.55;13.13;;;27.20;51.70;;;;;;1907510;74;21074;-70
2023/01/07 09:26:59;;;;;;;20.80;13.83;;;27.20;51.70;;;;;;1912949;74;21067;-69
2023/01/07 09:29:32;;;;;;;19.42;13.50;;;27.10;51.80;;;;;;1912380;74;21074;-69
2023/01/07 09:32:06;;;;;;;20.72;14.15;;;27.10;51.60;;;;;;1905084;73;21160;-69
2023/01/07 09:34:37;;;;;;;20.30;13.05;;;27.10;51.70;;;;;;1910368;74;21172;-69
2023/01/07 09:37:09;;;;;;;18.85;13.88;;;27.10;51.90;;;;;;1907692;74;21138;-69
2023/01/07 09:40:03;;;;;;;18.15;13.98;;;27.10;51.80;;;;;;1907995;74;21760;-69
2023/01/07 09:42:36;;;;;;;20.65;15.03;;;27.10;52.30;;;;;;1884430;74;21534;-67
2023/01/07 09:45:19;;;;;;;19.37;15.05;;;27.00;52.00;;;;;;1883843;74;21609;-68
2023/01/07 09:47:53;;;;;;;21.97;15.72;;;27.00;52.00;;;;;;1853502;74;21168;-68
2023/01/07 09:50:41;;;;;;;19.80;14.63;;;27.00;52.20;;;;;;1880641;74;21163;-69
2023/01/07 09:53:14;;;;;;;21.30;14.60;;;27.00;52.50;;;;;;1883037;74;21160;-69
2023/01/07 09:55:48;;;;;;;19.25;14.78;;;27.00;52.60;;;;;;1883377;74;21111;-69
2023/01/07 09:58:24;;;;;;;18.25;13.88;;;26.90;52.80;;;;;;1880462;74;21133;-68
2023/01/07 10:01:28;;;;;;;18.70;14.43;;;26.90;52.60;;;;;;1882342;74;21211;-69
2023/01/07 10:04:01;;;;;;;20.80;13.80;;;26.80;52.80;;;;;;1883148;74;21202;-69
2023/01/07 10:06:46;;;;;;;18.10;13.93;;;26.70;52.60;;;;;;1842382;74;21126;-69
2023/01/07 10:09:42;;;;;;;22.15;14.87;;;26.70;52.90;;;;;;1885828;74;21177;-70
2023/01/07 10:12:34;;;;;;;20.82;14.13;;;26.60;52.80;;;;;;1880633;74;21144;-69
2023/01/07 10:15:30;;;;;;;20.32;14.38;;;26.60;53.20;;;;;;1879369;74;21617;-69
2023/01/07 10:18:20;;;;;;;25.00;16.07;;;26.60;53.20;;;;;;1878179;74;21084;-69
2023/01/07 10:21:11;;;;;;;21.87;15.63;;;26.50;53.50;;;;;;1883505;74;21074;-70
2023/01/07 10:23:47;;;;;;;20.88;14.93;;;26.50;53.60;;;;;;1878972;74;21133;-69
2023/01/07 10:26:36;;;;;;;28.02;17.02;;;26.40;53.90;;;;;;1878812;74;21198;-70
2023/01/07 10:29:15;;;;;;;20.23;15.45;;;26.40;54.20;;;;;;1881970;74;21656;-68
2023/01/07 10:31:46;;;;;;;20.12;15.40;;;26.40;54.60;;;;;;1881861;74;21082;-70
2023/01/07 10:34:21;;;;;;;25.50;16.90;;;26.40;54.70;;;;;;1885129;74;21068;-70
2023/01/07 10:37:12;;;;;;;25.37;17.67;;;26.30;54.70;;;;;;1885059;74;21161;-69
2023/01/07 10:40:06;;;;;;;27.87;19.25;;;26.30;54.80;;;;;;1881966;74;21141;-69
2023/01/07 10:42:39;;;;;;;28.27;20.52;;;26.30;54.90;;;;;;1886894;74;21223;-69
2023/01/07 10:45:32;;;;;;;30.17;21.12;;;26.30;55.20;;;;;;1888033;74;21263;-69
2023/01/07 10:48:11;;;;;;;37.50;23.32;;;26.20;55.40;;;;;;1884337;74;21595;-68
2023/01/07 10:51:13;;;;;;;29.55;21.97;;;26.10;55.40;;;;;;1882627;74;21669;-70
2023/01/07 10:54:08;;;;;;;35.43;22.80;;;26.10;55.60;;;;;;1886573;74;21659;-70
2023/01/07 10:56:45;;;;;;;33.18;23.25;;;26.10;55.80;;;;;;1890816;74;21138;-70
2023/01/07 10:59:17;;;;;;;38.45;24.92;;;26.00;56.10;;;;;;1889729;74;21571;-69
2023/01/07 11:01:52;;;;;;;48.42;31.87;;;26.00;56.00;;;;;;1884423;74;21179;-69
2023/01/07 11:04:24;;;;;;;36.85;26.07;;;26.00;56.10;;;;;;1895305;74;21721;-69
2023/01/07 11:07:03;;;;;;;37.78;25.40;;;25.90;56.20;;;;;;1892570;74;21243;-82
2023/01/07 11:09:44;;;;;;;41.50;28.70;;;25.90;56.40;;;;;;1863697;75;21065;-87
2023/01/07 11:12:57;;;;;;;40.30;27.20;;;25.90;56.50;;;;;;1891678;74;21119;-89
2023/01/07 11:16:13;;;;;;;42.38;28.05;;;25.90;56.50;;;;;;1885314;74;21138;-87
2023/01/07 11:19:07;;;;;;;36.95;25.72;;;25.90;56.70;;;;;;1880291;74;21669;-86
2023/01/07 11:21:41;;;;;;;37.07;27.30;;;25.80;56.70;;;;;;1893860;74;21121;-86
2023/01/07 11:24:30;;;;;;;38.50;26.80;;;25.80;56.80;;;;;;1894403;74;21091;-86
2023/01/07 11:27:13;;;;;;;40.98;26.62;;;25.70;57.50;;;;;;1879613;74;21119;-86
2023/01/07 11:29:47;;;;;;;38.90;26.48;;;25.70;57.10;;;;;;1894403;74;21154;-87
2023/01/07 11:32:34;;;;;;;44.03;28.12;;;25.70;57.10;;;;;;1881556;74;21150;-85
2023/01/07 11:38:32;;;;;;;40.05;25.50;;;25.60;57.40;;;;;;1886245;74;21162;-87
2023/01/07 11:41:05;;;;;;;41.13;25.63;;;25.60;57.50;;;;;;1904755;74;21047;-87
2023/01/07 11:43:40;;;;;;;36.55;25.25;;;25.60;57.50;;;;;;1887556;75;21108;-87
2023/01/07 11:46:15;;;;;;;37.50;25.50;;;25.50;57.60;;;;;;1889870;75;21181;-87
2023/01/07 11:48:55;;;;;;;37.30;26.53;;;25.50;57.70;;;;;;1885884;75;21188;-86
2023/01/07 11:51:25;;;;;;;32.00;24.75;;;25.50;57.90;;;;;;1891676;75;21714;-85
2023/01/07 11:54:03;;;;;;;43.42;26.48;;;25.40;58.00;;;;;;1882028;75;21765;-86
2023/01/07 11:56:34;;;;;;;37.88;26.12;;;25.40;58.00;;;;;;1877672;75;21073;-89
2023/01/07 11:59:16;;;;;;;38.58;25.97;;;25.40;58.10;;;;;;1884023;75;21113;-89
2023/01/07 12:01:55;;;;;;;37.17;26.15;;;25.40;58.30;;;;;;1882831;75;21105;-87
2023/01/07 12:04:36;;;;;;;41.18;26.55;;;25.40;58.50;;;;;;1884894;75;21121;-86
2023/01/07 12:07:16;;;;;;;37.83;25.95;;;25.30;58.40;;;;;;1883268;76;21197;-87
2023/01/07 12:09:47;;;;;;;34.92;25.95;;;25.30;58.50;;;;;;1888424;75;21151;-88
2023/01/07 12:12:38;;;;;;;39.95;25.62;;;25.30;58.60;;;;;;1887597;75;21117;-87
2023/01/07 12:15:26;;;;;;;33.08;22.75;;;25.30;58.80;;;;;;1883578;76;21076;-87
2023/01/07 12:18:02;;;;;;;32.78;22.87;;;25.30;58.90;;;;;;1890107;75;21196;-87
2023/01/07 12:21:01;;;;;;;34.23;23.83;;;25.30;58.90;;;;;;1885732;75;21076;-87
2023/01/07 12:23:40;;;;;;;32.73;23.83;;;25.20;59.10;;;;;;1896313;75;21201;-86
2023/01/07 12:26:14;;;;;;;33.40;25.02;;;25.20;59.20;;;;;;1885603;75;21131;-87
2023/01/07 12:28:59;;;;;;;35.68;24.27;;;25.20;59.40;;;;;;1886465;75;21099;-89
2023/01/07 12:31:58;;;;;;;34.35;24.63;;;25.10;59.50;;;;;;1819863;76;21128;-86
2023/01/07 12:34:53;;;;;;;32.73;23.62;;;25.20;59.70;;;;;;1829917;78;21077;-87
2023/01/07 12:37:31;;;;;;;36.50;24.07;;;25.10;59.70;;;;;;1885089;76;21115;-87
2023/01/07 12:40:16;;;;;;;38.58;24.60;;;25.10;59.80;;;;;;1881078;76;21256;-88
2023/01/07 12:42:53;;;;;;;34.05;23.90;;;25.10;59.90;;;;;;1880521;75;21167;-87
2023/01/07 12:45:35;;;;;;;32.70;23.98;;;25.10;60.00;;;;;;1889095;75;21189;-87
2023/01/07 12:48:09;;;;;;;37.20;25.25;;;25.10;60.30;;;;;;1886352;74;21224;-87
2023/01/07 12:50:42;;;;;;;36.40;26.87;;;25.10;60.40;;;;;;1893759;75;21129;-86
2023/01/07 12:53:28;;;;;;;36.15;26.90;;;25.10;60.50;;;;;;1876680;74;21192;-85
2023/01/07 12:56:01;;;;;;;37.33;27.20;;;25.10;60.50;;;;;;1882175;75;21217;-87
2023/01/07 12:58:59;;;;;;;40.95;27.50;;;25.10;60.50;;;;;;1886004;75;21598;-87
2023/01/07 13:01:42;;;;;;;44.77;28.62;;;25.10;60.50;;;;;;1910437;74;22017;-87
2023/01/07 13:04:21;;;;;;;37.80;26.62;;;25.10;60.50;;;;;;1885471;74;21206;-87
2023/01/07 13:07:07;;;;;;;37.83;26.27;;;25.10;60.80;;;;;;1886908;74;21127;-87
2023/01/07 13:09:58;;;;;;;39.55;27.37;;;25.00;60.90;;;;;;1896339;74;21206;-86
2023/01/07 13:12:44;;;;;;;39.13;26.52;;;25.00;61.20;;;;;;1893676;74;21492;-87
2023/01/07 13:15:32;;;;;;;40.98;27.05;;;25.00;61.50;;;;;;1891459;74;21182;-88
2023/01/07 13:18:11;;;;;;;42.98;28.27;;;25.00;61.60;;;;;;1843739;77;21113;-86
2023/01/07 13:20:57;;;;;;;36.28;25.80;;;24.90;62.00;;;;;;1905325;74;21230;-87
2023/01/07 13:23:36;;;;;;;38.48;26.75;;;24.90;62.20;;;;;;1916976;73;21166;-87
2023/01/07 13:26:29;;;;;;;40.28;26.70;;;24.80;62.50;;;;;;1915571;73;21079;-88